Time;durP1;ratioP1;P1;durP2;ratioP2;P2;SDS_P1;SDS_P2;PMS_P1;PMS_P2;Temp;Humidity;BMP_temperature;BMP_pressure;BME280_temperature;BME280_humidity;BME280_pressure;Samples;Min_cycle;Max_cycle;Signal;HPM_P1;HPM_P2
2021/10/18 00:00:24;;;;;;;26.67;15.82;;;9.70;99.90;;;;;;2106698;28;20060;-71
2021/10/18 00:01:25;;;;;;;26.90;16.33;;;9.70;99.90;;;;;;2105494;28;20035;-70
2021/10/18 00:02:26;;;;;;;27.13;16.15;;;9.70;99.90;;;;;;2105629;28;20028;-71
2021/10/18 00:03:27;;;;;;;27.45;16.40;;;9.70;99.90;;;;;;2105778;28;20111;-71
2021/10/18 00:04:27;;;;;;;26.70;16.27;;;9.70;99.90;;;;;;2106415;28;20039;-70
2021/10/18 00:05:28;;;;;;;26.25;16.08;;;9.70;99.90;;;;;;2106474;28;20028;-70
2021/10/18 00:06:30;;;;;;;24.77;15.80;;;9.70;99.90;;;;;;2106692;28;20023;-71
2021/10/18 00:07:30;;;;;;;24.20;15.13;;;9.70;99.90;;;;;;2106336;28;20028;-71
2021/10/18 00:08:31;;;;;;;22.73;14.50;;;9.60;99.90;;;;;;2106486;28;20074;-71
2021/10/18 00:09:32;;;;;;;23.45;14.85;;;9.60;99.90;;;;;;2106544;28;20108;-71
2021/10/18 00:10:33;;;;;;;21.27;14.30;;;9.60;99.90;;;;;;2106450;28;20383;-71
2021/10/18 00:11:33;;;;;;;18.13;13.60;;;9.60;99.90;;;;;;2106038;28;20144;-71
2021/10/18 00:12:35;;;;;;;20.15;13.65;;;9.60;99.90;;;;;;2106485;28;20028;-71
2021/10/18 00:13:36;;;;;;;20.50;13.82;;;9.60;99.90;;;;;;2105820;28;20023;-72
2021/10/18 00:14:36;;;;;;;18.08;13.05;;;9.60;99.90;;;;;;2106508;28;20466;-71
2021/10/18 00:15:37;;;;;;;19.00;13.20;;;9.60;99.90;;;;;;2105671;28;20124;-71
2021/10/18 00:16:38;;;;;;;19.17;12.75;;;9.60;99.90;;;;;;2105892;28;20020;-73
2021/10/18 00:17:39;;;;;;;18.60;13.43;;;9.60;99.90;;;;;;2106466;28;20085;-72
2021/10/18 00:18:40;;;;;;;19.13;12.77;;;9.60;99.90;;;;;;2105700;28;20137;-70
2021/10/18 00:19:41;;;;;;;23.63;13.93;;;9.60;99.90;;;;;;2105656;28;20805;-70
2021/10/18 00:20:42;;;;;;;20.42;13.57;;;9.60;99.90;;;;;;2106366;28;20693;-70
2021/10/18 00:21:42;;;;;;;18.42;12.63;;;9.60;99.90;;;;;;2105336;28;20067;-72
2021/10/18 00:22:43;;;;;;;19.58;12.88;;;9.60;99.90;;;;;;2105606;28;20021;-70
2021/10/18 00:23:44;;;;;;;18.42;12.95;;;9.60;99.90;;;;;;2105116;28;20051;-71
2021/10/18 00:24:46;;;;;;;18.25;12.68;;;9.60;99.90;;;;;;2105607;28;20070;-71
2021/10/18 00:25:47;;;;;;;19.48;13.50;;;9.60;99.90;;;;;;2106452;28;20024;-70
2021/10/18 00:26:48;;;;;;;21.00;14.30;;;9.60;99.90;;;;;;2106243;28;20036;-72
2021/10/18 00:27:48;;;;;;;19.33;13.93;;;9.60;99.90;;;;;;2106154;28;20063;-72
2021/10/18 00:28:49;;;;;;;20.02;14.85;;;9.60;99.90;;;;;;2106174;28;20059;-72
2021/10/18 00:29:50;;;;;;;21.70;14.90;;;9.60;99.90;;;;;;2106413;28;20035;-71
2021/10/18 00:30:50;;;;;;;20.13;15.13;;;9.60;99.90;;;;;;2106258;28;20388;-71
2021/10/18 00:31:51;;;;;;;22.58;15.65;;;9.60;99.90;;;;;;2106096;28;20096;-71
2021/10/18 00:32:52;;;;;;;21.38;15.30;;;9.60;99.90;;;;;;2105441;28;20020;-71
2021/10/18 00:33:52;;;;;;;19.65;14.02;;;9.60;99.90;;;;;;2105675;28;20082;-71
2021/10/18 00:34:53;;;;;;;19.65;13.73;;;9.50;99.90;;;;;;2106258;28;20031;-72
2021/10/18 00:35:53;;;;;;;18.35;13.73;;;9.50;99.90;;;;;;2105747;28;20024;-72
2021/10/18 00:36:54;;;;;;;19.67;13.80;;;9.50;99.90;;;;;;2105588;28;20031;-73
2021/10/18 00:37:56;;;;;;;19.77;13.63;;;9.50;99.90;;;;;;2106070;28;20380;-71
2021/10/18 00:38:57;;;;;;;17.83;13.30;;;9.50;99.90;;;;;;2106249;28;20063;-71
2021/10/18 00:39:57;;;;;;;18.35;13.23;;;9.50;99.90;;;;;;2105482;28;20034;-72
2021/10/18 00:40:58;;;;;;;17.80;13.18;;;9.50;99.90;;;;;;2105558;28;20036;-71
2021/10/18 00:41:59;;;;;;;18.02;13.00;;;9.50;99.90;;;;;;2105792;28;20081;-71
2021/10/18 00:43:00;;;;;;;16.60;12.98;;;9.50;99.90;;;;;;2104922;28;20131;-71
2021/10/18 00:44:01;;;;;;;17.02;12.68;;;9.50;99.90;;;;;;2105489;28;20387;-72
2021/10/18 00:45:02;;;;;;;15.75;12.13;;;9.50;99.90;;;;;;2105906;28;20051;-71
2021/10/18 00:46:03;;;;;;;16.50;12.20;;;9.50;99.90;;;;;;2106087;28;20024;-71
2021/10/18 00:47:04;;;;;;;16.90;12.02;;;9.40;99.90;;;;;;2106053;28;20028;-71
2021/10/18 00:48:05;;;;;;;16.15;12.35;;;9.40;99.90;;;;;;2106090;28;20058;-71
2021/10/18 00:49:05;;;;;;;15.15;12.07;;;9.40;99.90;;;;;;2105697;28;20024;-70
2021/10/18 00:50:08;;;;;;;20.08;13.15;;;9.40;99.90;;;;;;2105880;28;20050;-71
2021/10/18 00:51:10;;;;;;;16.00;12.70;;;9.40;99.90;;;;;;2106694;28;20647;-71
2021/10/18 00:52:12;;;;;;;17.40;12.63;;;9.40;99.90;;;;;;2106802;28;20540;-71
2021/10/18 00:53:14;;;;;;;17.80;12.70;;;9.40;99.90;;;;;;2106342;28;20088;-72
2021/10/18 00:54:14;;;;;;;17.15;12.93;;;9.40;99.90;;;;;;2106860;28;20024;-71
2021/10/18 00:55:15;;;;;;;16.33;12.85;;;9.40;99.90;;;;;;2106197;28;20102;-71
2021/10/18 00:56:16;;;;;;;16.83;12.45;;;9.50;99.90;;;;;;2106272;28;20108;-71
2021/10/18 00:57:18;;;;;;;17.90;12.52;;;9.50;99.90;;;;;;2106182;28;20031;-71
2021/10/18 00:58:18;;;;;;;16.48;12.35;;;9.40;99.90;;;;;;2105982;28;20097;-71
2021/10/18 00:59:19;;;;;;;16.33;12.52;;;9.40;99.90;;;;;;2106628;28;20047;-71
2021/10/18 01:00:21;;;;;;;14.30;11.80;;;9.40;99.90;;;;;;2106731;28;20043;-71
2021/10/18 01:01:22;;;;;;;15.93;12.43;;;9.40;99.90;;;;;;2106585;28;20080;-71
2021/10/18 01:02:23;;;;;;;16.02;12.13;;;9.40;99.90;;;;;;2106949;28;20075;-71
2021/10/18 01:03:25;;;;;;;14.88;11.65;;;9.40;99.90;;;;;;2105814;28;20043;-71
2021/10/18 01:04:26;;;;;;;16.35;12.13;;;9.40;99.90;;;;;;2105802;28;20077;-72
2021/10/18 01:05:27;;;;;;;16.00;11.98;;;9.40;99.90;;;;;;2105993;28;20036;-72
2021/10/18 01:06:27;;;;;;;15.30;11.90;;;9.40;99.90;;;;;;2106163;28;20384;-72
2021/10/18 01:07:28;;;;;;;15.82;12.35;;;9.40;99.90;;;;;;2106169;28;20108;-71
2021/10/18 01:08:29;;;;;;;18.55;12.35;;;9.40;99.90;;;;;;2105992;28;20032;-71
2021/10/18 01:09:29;;;;;;;14.35;11.40;;;9.30;99.90;;;;;;2106026;28;20482;-71
2021/10/18 01:10:30;;;;;;;14.65;11.60;;;9.40;99.90;;;;;;2096738;28;20470;-71
2021/10/18 01:11:30;;;;;;;14.25;11.57;;;9.40;99.90;;;;;;2096666;28;20040;-70
2021/10/18 01:12:31;;;;;;;17.50;12.40;;;9.40;99.90;;;;;;2105180;28;20052;-71
2021/10/18 01:13:32;;;;;;;16.80;12.45;;;9.40;99.90;;;;;;2104878;28;20039;-70
2021/10/18 01:14:33;;;;;;;14.43;11.45;;;9.40;99.90;;;;;;2104907;28;20035;-71
2021/10/18 01:15:34;;;;;;;17.27;12.20;;;9.40;99.90;;;;;;2105784;28;20066;-71
2021/10/18 01:16:35;;;;;;;14.50;11.38;;;9.40;99.90;;;;;;2105843;28;20032;-71
2021/10/18 01:17:35;;;;;;;15.50;12.70;;;9.40;99.90;;;;;;2105937;28;20039;-71
2021/10/18 01:18:36;;;;;;;15.57;12.10;;;9.40;99.90;;;;;;2105769;28;20066;-71
2021/10/18 01:19:37;;;;;;;16.40;12.07;;;9.40;99.90;;;;;;2105894;28;20028;-71
2021/10/18 01:20:40;;;;;;;13.98;11.43;;;9.40;99.90;;;;;;2105807;28;20116;-71
2021/10/18 01:21:42;;;;;;;15.07;12.13;;;9.40;99.90;;;;;;2105476;28;20072;-72
2021/10/18 01:22:42;;;;;;;14.57;11.65;;;9.40;99.90;;;;;;2105867;28;20034;-71
2021/10/18 01:23:43;;;;;;;15.70;12.07;;;9.40;99.90;;;;;;2105421;28;20031;-71
2021/10/18 01:24:44;;;;;;;15.02;11.70;;;9.40;99.90;;;;;;2105747;28;20441;-71
2021/10/18 01:25:44;;;;;;;16.55;12.15;;;9.40;99.90;;;;;;2105792;28;20043;-71
2021/10/18 01:26:45;;;;;;;15.82;12.27;;;9.40;99.90;;;;;;2105114;28;20073;-71
2021/10/18 01:27:45;;;;;;;15.57;11.75;;;9.40;99.90;;;;;;2105136;28;20024;-71
2021/10/18 01:28:46;;;;;;;16.45;11.40;;;9.40;99.90;;;;;;2105854;28;20039;-72
2021/10/18 01:29:46;;;;;;;15.35;11.80;;;9.40;99.90;;;;;;2105784;28;20028;-71
2021/10/18 01:30:47;;;;;;;14.45;11.60;;;9.40;99.90;;;;;;2105229;28;20051;-71
2021/10/18 01:31:48;;;;;;;14.88;11.73;;;9.40;99.90;;;;;;2104849;28;20099;-71
2021/10/18 01:32:49;;;;;;;14.15;11.55;;;9.40;99.90;;;;;;2105511;28;20767;-71
2021/10/18 01:33:50;;;;;;;14.90;11.68;;;9.40;99.90;;;;;;2105290;28;20448;-71
2021/10/18 01:34:50;;;;;;;14.70;11.40;;;9.40;99.90;;;;;;2105702;28;20017;-71
2021/10/18 01:35:51;;;;;;;16.17;12.18;;;9.40;99.90;;;;;;2105629;28;20456;-72
2021/10/18 01:36:54;;;;;;;16.10;11.65;;;9.40;99.90;;;;;;2105725;28;20476;-71
2021/10/18 01:37:55;;;;;;;15.60;11.38;;;9.40;99.90;;;;;;2105586;28;20020;-72
2021/10/18 01:38:55;;;;;;;17.45;12.50;;;9.40;99.90;;;;;;2105644;28;20024;-72
2021/10/18 01:39:56;;;;;;;17.73;12.77;;;9.40;99.90;;;;;;2105504;28;20426;-71
2021/10/18 01:40:56;;;;;;;17.63;12.80;;;9.40;99.90;;;;;;2104928;28;20020;-71
2021/10/18 01:41:57;;;;;;;16.58;13.02;;;9.40;99.90;;;;;;2104775;28;20452;-72
2021/10/18 01:42:58;;;;;;;17.55;12.80;;;9.40;99.90;;;;;;2104555;28;20407;-71
2021/10/18 01:43:58;;;;;;;16.25;12.55;;;9.40;99.90;;;;;;2104843;28;20554;-71
2021/10/18 01:44:59;;;;;;;17.17;12.98;;;9.40;99.90;;;;;;2105713;28;20046;-71
2021/10/18 01:45:59;;;;;;;18.00;13.10;;;9.40;99.90;;;;;;2104974;28;20055;-71
2021/10/18 01:47:00;;;;;;;15.65;12.20;;;9.40;99.90;;;;;;2104996;28;20638;-71
2021/10/18 01:48:01;;;;;;;17.63;13.23;;;9.40;99.90;;;;;;2105600;28;20020;-71
2021/10/18 01:49:01;;;;;;;19.27;13.30;;;9.40;99.90;;;;;;2105576;28;20563;-71
2021/10/18 01:50:11;;;;;;;17.83;13.55;;;9.40;99.90;;;;;;2104911;28;20078;-71
2021/10/18 01:51:11;;;;;;;19.40;13.40;;;9.40;99.90;;;;;;2104927;28;20110;-71
2021/10/18 01:52:12;;;;;;;19.77;13.45;;;9.40;99.90;;;;;;2105707;28;20028;-71
2021/10/18 01:53:12;;;;;;;19.80;13.00;;;9.40;99.90;;;;;;2105081;28;20081;-71
2021/10/18 01:54:13;;;;;;;19.80;13.93;;;9.40;99.90;;;;;;2105610;28;20028;-71
2021/10/18 01:55:15;;;;;;;20.90;14.23;;;9.30;99.90;;;;;;2105618;28;20039;-71
2021/10/18 01:56:16;;;;;;;20.90;14.10;;;9.30;99.90;;;;;;2104977;28;20506;-70
2021/10/18 01:57:17;;;;;;;19.38;13.10;;;9.40;99.90;;;;;;2105020;28;20118;-71
2021/10/18 01:58:18;;;;;;;18.10;13.20;;;9.30;99.90;;;;;;2105459;28;20036;-70
2021/10/18 01:59:19;;;;;;;19.30;13.43;;;9.30;99.90;;;;;;2105591;28;20533;-70
2021/10/18 02:00:21;;;;;;;17.85;12.75;;;9.40;99.90;;;;;;2105586;28;20036;-70
2021/10/18 02:01:22;;;;;;;18.15;13.63;;;9.40;99.90;;;;;;2105367;28;20043;-70
2021/10/18 02:02:24;;;;;;;20.98;13.88;;;9.40;99.90;;;;;;2105609;28;20028;-70
2021/10/18 02:03:25;;;;;;;19.02;13.68;;;9.40;99.90;;;;;;2105061;28;20024;-70
2021/10/18 02:04:25;;;;;;;22.98;14.52;;;9.40;99.90;;;;;;2104934;28;20032;-71
2021/10/18 02:05:26;;;;;;;21.13;14.65;;;9.40;99.90;;;;;;2096887;28;20040;-71
2021/10/18 02:06:26;;;;;;;21.85;15.25;;;9.40;99.90;;;;;;2105819;28;20020;-71
2021/10/18 02:07:27;;;;;;;23.77;15.30;;;9.30;99.90;;;;;;2106261;28;20415;-71
2021/10/18 02:08:28;;;;;;;25.60;15.88;;;9.40;99.90;;;;;;2106454;28;20032;-71
2021/10/18 02:09:28;;;;;;;23.05;15.45;;;9.40;99.90;;;;;;2106370;28;20032;-71
2021/10/18 02:10:29;;;;;;;25.67;16.73;;;9.40;99.90;;;;;;2106310;28;20024;-71
2021/10/18 02:11:29;;;;;;;24.88;16.13;;;9.40;99.90;;;;;;2106251;28;20043;-71
2021/10/18 02:12:30;;;;;;;28.52;16.40;;;9.40;99.90;;;;;;2106186;28;20022;-71
2021/10/18 02:13:31;;;;;;;22.80;15.23;;;9.40;99.90;;;;;;2105571;28;20364;-71
2021/10/18 02:14:32;;;;;;;24.08;15.85;;;9.40;99.90;;;;;;2105271;28;20051;-72
2021/10/18 02:15:32;;;;;;;23.33;15.50;;;9.40;99.90;;;;;;2104967;28;20044;-72
2021/10/18 02:16:33;;;;;;;22.70;15.57;;;9.40;99.90;;;;;;2105238;28;20106;-72
2021/10/18 02:17:34;;;;;;;23.05;15.05;;;9.40;99.90;;;;;;2106274;28;20035;-72
2021/10/18 02:18:35;;;;;;;21.77;15.43;;;9.40;99.90;;;;;;2105880;28;20028;-72
2021/10/18 02:19:35;;;;;;;20.88;14.75;;;9.40;99.90;;;;;;2104968;28;20035;-72
2021/10/18 02:20:36;;;;;;;22.40;15.00;;;9.40;99.90;;;;;;2096983;28;20032;-73
2021/10/18 02:21:37;;;;;;;20.80;14.15;;;9.40;99.90;;;;;;2104985;28;20467;-72
2021/10/18 02:22:37;;;;;;;19.90;14.02;;;9.40;99.90;;;;;;2105605;28;20028;-72
2021/10/18 02:23:38;;;;;;;17.45;13.10;;;9.40;99.90;;;;;;2105335;28;20527;-72
2021/10/18 02:24:39;;;;;;;17.85;13.20;;;9.40;99.90;;;;;;2105986;28;20119;-73
2021/10/18 02:25:39;;;;;;;17.70;13.82;;;9.40;99.90;;;;;;2104967;28;20031;-72
2021/10/18 02:26:40;;;;;;;18.83;13.38;;;9.40;99.90;;;;;;2105151;28;20368;-73
2021/10/18 02:27:42;;;;;;;15.85;12.52;;;9.40;99.90;;;;;;2105672;28;20016;-72
2021/10/18 02:28:42;;;;;;;16.77;12.75;;;9.40;99.90;;;;;;2105943;28;20020;-72
2021/10/18 02:29:43;;;;;;;16.52;12.77;;;9.40;99.90;;;;;;2105828;28;20032;-72
2021/10/18 02:30:44;;;;;;;17.17;12.82;;;9.40;99.90;;;;;;2105681;28;20019;-72
2021/10/18 02:31:44;;;;;;;16.05;11.73;;;9.40;99.90;;;;;;2105173;28;20077;-72
2021/10/18 02:32:45;;;;;;;15.85;12.38;;;9.40;99.90;;;;;;2105445;28;20027;-72
2021/10/18 02:33:46;;;;;;;15.95;11.93;;;9.40;99.90;;;;;;2104351;28;20062;-72
2021/10/18 02:34:47;;;;;;;16.92;12.48;;;9.40;99.90;;;;;;2104775;28;20031;-72
2021/10/18 02:35:47;;;;;;;15.43;11.85;;;9.40;99.90;;;;;;2105478;28;20020;-72
2021/10/18 02:36:48;;;;;;;15.85;11.80;;;9.40;99.90;;;;;;2105074;28;20036;-72
2021/10/18 02:37:48;;;;;;;16.95;12.57;;;9.40;99.90;;;;;;2096550;28;20024;-72
2021/10/18 02:38:49;;;;;;;15.93;11.60;;;9.40;99.90;;;;;;2104918;28;20031;-72
2021/10/18 02:39:51;;;;;;;16.38;12.27;;;9.40;99.90;;;;;;2105027;28;20023;-72
2021/10/18 02:40:51;;;;;;;16.70;11.88;;;9.40;99.90;;;;;;2104670;28;20020;-72
2021/10/18 02:41:52;;;;;;;15.23;11.65;;;9.40;99.90;;;;;;2104737;28;20032;-72
2021/10/18 02:42:52;;;;;;;16.42;11.52;;;9.40;99.90;;;;;;2104111;28;20135;-72
2021/10/18 02:43:53;;;;;;;16.80;12.20;;;9.40;99.90;;;;;;2105082;28;20387;-72
2021/10/18 02:44:53;;;;;;;15.48;12.13;;;9.40;99.90;;;;;;2105161;28;20034;-72
2021/10/18 02:45:54;;;;;;;15.48;11.80;;;9.40;99.90;;;;;;2105274;28;20020;-72
2021/10/18 02:46:54;;;;;;;17.25;12.00;;;9.40;99.90;;;;;;2104673;28;20024;-72
2021/10/18 02:47:55;;;;;;;15.40;11.95;;;9.40;99.90;;;;;;2104960;28;20364;-72
2021/10/18 02:48:56;;;;;;;14.35;11.43;;;9.40;99.90;;;;;;2105491;28;20082;-72
2021/10/18 02:49:56;;;;;;;14.55;11.40;;;9.40;99.90;;;;;;2105563;28;20028;-72
2021/10/18 02:50:57;;;;;;;15.63;11.65;;;9.40;99.90;;;;;;2104739;28;20024;-72
2021/10/18 02:51:57;;;;;;;16.83;11.75;;;9.40;99.90;;;;;;2104789;28;20489;-72
2021/10/18 02:52:58;;;;;;;13.60;10.48;;;9.40;99.90;;;;;;2104863;28;20071;-72
2021/10/18 02:53:59;;;;;;;14.20;11.50;;;9.40;99.90;;;;;;2105051;28;20028;-72
2021/10/18 02:55:00;;;;;;;12.27;10.27;;;9.40;99.90;;;;;;2105860;28;20040;-72
2021/10/18 02:56:01;;;;;;;13.65;10.82;;;9.40;99.90;;;;;;2105451;28;20028;-72
2021/10/18 02:57:02;;;;;;;12.68;10.52;;;9.40;99.90;;;;;;2105287;28;20039;-72
2021/10/18 02:58:03;;;;;;;12.60;10.40;;;9.40;99.90;;;;;;2105279;28;20044;-72
2021/10/18 02:59:03;;;;;;;13.25;10.55;;;9.40;99.90;;;;;;2105347;28;20112;-73
2021/10/18 03:00:06;;;;;;;14.57;10.93;;;9.40;99.90;;;;;;2105566;28;20379;-73
2021/10/18 03:01:07;;;;;;;14.75;10.82;;;9.40;99.90;;;;;;2104806;28;20480;-73
2021/10/18 03:02:08;;;;;;;15.48;11.23;;;9.40;99.90;;;;;;2104722;28;20036;-73
2021/10/18 03:03:09;;;;;;;14.20;10.70;;;9.40;99.90;;;;;;2104831;28;20487;-73
2021/10/18 03:04:10;;;;;;;14.25;10.73;;;9.40;99.90;;;;;;2105342;28;20056;-73
2021/10/18 03:05:10;;;;;;;14.88;10.48;;;9.40;99.90;;;;;;2105471;28;20116;-73
2021/10/18 03:06:11;;;;;;;15.60;10.88;;;9.40;99.90;;;;;;2105603;28;20028;-73
2021/10/18 03:07:12;;;;;;;13.80;10.43;;;9.40;99.90;;;;;;2105637;28;20083;-72
2021/10/18 03:08:13;;;;;;;15.57;10.68;;;9.40;99.90;;;;;;2104915;28;20032;-73
2021/10/18 03:09:17;;;;;;;16.10;11.02;;;9.40;99.90;;;;;;2105099;28;20108;-73
2021/10/18 03:10:20;;;;;;;14.65;10.50;;;9.40;99.90;;;;;;2096343;28;20029;-73
2021/10/18 03:11:20;;;;;;;13.30;10.60;;;9.50;99.90;;;;;;2096433;28;20020;-72
2021/10/18 03:12:21;;;;;;;13.60;10.30;;;9.40;99.90;;;;;;2105333;28;20546;-73
2021/10/18 03:13:22;;;;;;;12.82;10.13;;;9.40;99.90;;;;;;2104602;28;20024;-73
2021/10/18 03:14:22;;;;;;;13.23;10.30;;;9.50;99.90;;;;;;2104620;28;20078;-73
2021/10/18 03:15:23;;;;;;;13.75;9.90;;;9.50;99.90;;;;;;2104773;28;20526;-73
2021/10/18 03:16:24;;;;;;;13.77;10.15;;;9.40;99.90;;;;;;2095965;28;20127;-73
2021/10/18 03:17:26;;;;;;;14.35;10.63;;;9.40;99.90;;;;;;2096355;28;20502;-73
2021/10/18 03:18:27;;;;;;;12.13;9.88;;;9.40;99.90;;;;;;2105305;28;20036;-73
2021/10/18 03:19:27;;;;;;;14.15;10.55;;;9.40;99.90;;;;;;2096383;28;20028;-73
2021/10/18 03:20:28;;;;;;;13.00;10.55;;;9.40;99.90;;;;;;2087971;28;20045;-72
2021/10/18 03:21:29;;;;;;;13.57;10.32;;;9.40;99.90;;;;;;2104337;28;20067;-73
2021/10/18 03:22:29;;;;;;;12.48;9.95;;;9.40;99.90;;;;;;2105045;28;20093;-72
2021/10/18 03:23:30;;;;;;;14.02;10.27;;;9.40;99.90;;;;;;2104077;28;20121;-73
2021/10/18 03:24:31;;;;;;;13.57;10.60;;;9.40;99.90;;;;;;2104695;28;20032;-72
2021/10/18 03:25:34;;;;;;;12.57;10.38;;;9.40;99.90;;;;;;2104443;28;20418;-72
2021/10/18 03:26:36;;;;;;;16.20;10.73;;;9.40;99.90;;;;;;2096615;28;20029;-72
2021/10/18 03:27:37;;;;;;;13.77;10.52;;;9.40;99.90;;;;;;2096141;28;20056;-72
2021/10/18 03:28:37;;;;;;;13.45;10.60;;;9.40;99.90;;;;;;2104521;28;20054;-72
2021/10/18 03:29:38;;;;;;;13.27;10.10;;;9.40;99.90;;;;;;2105022;28;20090;-73
2021/10/18 03:30:38;;;;;;;13.13;9.85;;;9.40;99.90;;;;;;2104374;28;20131;-73
2021/10/18 03:31:39;;;;;;;13.43;10.00;;;9.40;99.90;;;;;;2095796;28;20052;-73
2021/10/18 03:32:41;;;;;;;12.80;9.68;;;9.40;99.90;;;;;;2087680;28;20416;-72
2021/10/18 03:33:41;;;;;;;14.60;10.45;;;9.40;99.90;;;;;;2095883;28;20032;-72
2021/10/18 03:34:42;;;;;;;14.10;10.30;;;9.40;99.90;;;;;;2104455;28;20016;-73
2021/10/18 03:35:43;;;;;;;12.52;9.90;;;9.40;99.90;;;;;;2104326;28;20035;-72
2021/10/18 03:36:43;;;;;;;14.20;10.63;;;9.40;99.90;;;;;;2104318;28;20111;-73
2021/10/18 03:37:45;;;;;;;13.93;10.25;;;9.40;99.90;;;;;;2104646;28;20016;-73
2021/10/18 03:38:46;;;;;;;12.65;9.80;;;9.40;99.90;;;;;;2105974;28;20075;-72
2021/10/18 03:39:46;;;;;;;13.88;10.20;;;9.40;99.90;;;;;;2105939;28;20375;-72
2021/10/18 03:40:47;;;;;;;14.77;10.68;;;9.40;99.90;;;;;;2105933;28;20039;-72
2021/10/18 03:41:47;;;;;;;15.82;11.20;;;9.50;99.90;;;;;;2106313;28;20028;-71
2021/10/18 03:42:48;;;;;;;14.35;10.55;;;9.50;99.90;;;;;;2105862;28;20533;-70
2021/10/18 03:43:49;;;;;;;13.30;10.07;;;9.50;99.90;;;;;;2105478;28;20360;-70
2021/10/18 03:44:50;;;;;;;13.95;10.63;;;9.50;99.90;;;;;;2106591;28;20026;-71
2021/10/18 03:45:51;;;;;;;13.10;9.82;;;9.50;99.90;;;;;;2106627;28;20398;-71
2021/10/18 03:46:51;;;;;;;12.98;9.77;;;9.50;99.90;;;;;;2106571;28;20038;-71
2021/10/18 03:47:52;;;;;;;12.95;10.02;;;9.50;99.90;;;;;;2105961;28;20024;-70
2021/10/18 03:48:53;;;;;;;14.00;9.73;;;9.40;99.90;;;;;;2105867;28;20028;-71
2021/10/18 03:49:53;;;;;;;14.05;10.27;;;9.50;99.90;;;;;;2106540;28;20020;-71
2021/10/18 03:50:56;;;;;;;12.98;10.02;;;9.40;99.90;;;;;;2106590;28;20432;-71
2021/10/18 03:51:57;;;;;;;13.18;10.05;;;9.40;99.90;;;;;;2106353;28;20032;-71
2021/10/18 03:52:58;;;;;;;12.63;9.38;;;9.40;99.90;;;;;;2106025;28;20103;-71
2021/10/18 03:53:58;;;;;;;13.88;10.02;;;9.40;99.90;;;;;;2106544;28;20056;-71
2021/10/18 03:54:59;;;;;;;12.52;9.52;;;9.40;99.90;;;;;;2106579;28;20032;-71
2021/10/18 03:55:59;;;;;;;13.35;10.10;;;9.40;99.90;;;;;;2106498;28;20513;-71
2021/10/18 03:57:00;;;;;;;12.50;9.88;;;9.40;99.90;;;;;;2106372;28;20427;-71
2021/10/18 03:58:01;;;;;;;13.10;9.90;;;9.40;99.90;;;;;;2105958;28;20391;-71
2021/10/18 03:59:03;;;;;;;14.65;9.52;;;9.40;99.90;;;;;;2105863;28;20031;-70
2021/10/18 04:00:05;;;;;;;15.50;10.05;;;9.40;99.90;;;;;;2106476;28;20043;-71
2021/10/18 04:01:12;;;;;;;12.88;9.85;;;9.40;99.90;;;;;;2105906;28;20025;-71
2021/10/18 04:02:14;;;;;;;12.68;9.40;;;9.40;99.90;;;;;;2106438;28;20024;-71
2021/10/18 04:03:14;;;;;;;13.57;9.60;;;9.40;99.90;;;;;;2105809;28;20046;-71
2021/10/18 04:04:15;;;;;;;12.05;9.20;;;9.40;99.90;;;;;;2106359;28;20028;-71
2021/10/18 04:05:16;;;;;;;13.15;9.75;;;9.40;99.90;;;;;;2106288;28;20050;-70
2021/10/18 04:06:16;;;;;;;14.30;10.00;;;9.40;99.90;;;;;;2106497;28;20032;-71
2021/10/18 04:07:17;;;;;;;12.77;9.80;;;9.40;99.90;;;;;;2106383;28;20028;-71
2021/10/18 04:08:20;;;;;;;14.63;10.52;;;9.40;99.90;;;;;;2106485;28;20020;-71
2021/10/18 04:09:20;;;;;;;14.65;9.82;;;9.40;99.90;;;;;;2097386;28;20514;-71
2021/10/18 04:10:21;;;;;;;14.23;10.45;;;9.40;99.90;;;;;;2097194;28;20035;-71
2021/10/18 04:11:22;;;;;;;15.43;10.57;;;9.40;99.90;;;;;;2105435;28;20024;-70
2021/10/18 04:12:25;;;;;;;14.98;10.60;;;9.40;99.90;;;;;;2106480;28;20021;-70
2021/10/18 04:13:25;;;;;;;14.35;11.63;;;9.40;99.90;;;;;;2105770;28;20112;-71
2021/10/18 04:14:27;;;;;;;16.77;11.77;;;9.40;99.90;;;;;;2106389;28;20034;-71
2021/10/18 04:15:27;;;;;;;15.90;11.93;;;9.40;99.90;;;;;;2106524;28;20479;-72
2021/10/18 04:16:28;;;;;;;14.48;11.75;;;9.40;99.90;;;;;;2106326;28;20115;-71
2021/10/18 04:17:30;;;;;;;14.63;11.00;;;9.40;99.90;;;;;;2105638;28;20036;-72
2021/10/18 04:18:30;;;;;;;15.20;10.73;;;9.40;99.90;;;;;;2105762;28;20521;-71
2021/10/18 04:19:31;;;;;;;13.80;11.00;;;9.40;99.90;;;;;;2105713;28;20033;-72
2021/10/18 04:20:31;;;;;;;15.65;10.95;;;9.40;99.90;;;;;;2097353;28;20059;-72
2021/10/18 04:21:32;;;;;;;13.35;10.38;;;9.40;99.90;;;;;;2105090;28;20077;-71
2021/10/18 04:22:33;;;;;;;14.10;10.48;;;9.40;99.90;;;;;;2106276;28;20034;-71
2021/10/18 04:23:33;;;;;;;13.45;10.50;;;9.40;99.90;;;;;;2105747;28;20481;-71
2021/10/18 04:24:34;;;;;;;13.50;10.70;;;9.40;99.90;;;;;;2106300;28;20058;-71
2021/10/18 04:25:35;;;;;;;14.52;10.25;;;9.40;99.90;;;;;;2106163;28;20028;-71
2021/10/18 04:26:36;;;;;;;14.88;10.40;;;9.40;99.90;;;;;;2106280;28;20039;-71
2021/10/18 04:27:37;;;;;;;13.40;10.52;;;9.40;99.90;;;;;;2106248;28;20032;-71
2021/10/18 04:28:37;;;;;;;12.82;9.93;;;9.40;99.90;;;;;;2106274;28;20023;-71
2021/10/18 04:29:38;;;;;;;14.05;9.85;;;9.40;99.90;;;;;;2106321;28;20073;-71
2021/10/18 04:30:39;;;;;;;14.45;10.35;;;9.40;99.90;;;;;;2105509;28;20024;-71
2021/10/18 04:31:39;;;;;;;13.45;10.32;;;9.40;99.90;;;;;;2105238;28;20100;-70
2021/10/18 04:32:40;;;;;;;13.23;9.85;;;9.40;99.90;;;;;;2105547;28;20034;-71
2021/10/18 04:33:41;;;;;;;11.40;9.10;;;9.40;99.90;;;;;;2105640;28;20564;-71
2021/10/18 04:34:42;;;;;;;12.73;9.57;;;9.40;99.90;;;;;;2105513;28;20646;-71
2021/10/18 04:35:43;;;;;;;12.93;9.90;;;9.40;99.90;;;;;;2105636;28;20020;-72
2021/10/18 04:36:43;;;;;;;12.27;9.20;;;9.40;99.90;;;;;;2106243;28;20028;-71
2021/10/18 04:37:44;;;;;;;12.38;9.35;;;9.40;99.90;;;;;;2105544;28;20114;-71
2021/10/18 04:38:45;;;;;;;11.90;9.18;;;9.40;99.90;;;;;;2105695;28;20035;-71
2021/10/18 04:39:45;;;;;;;11.93;9.60;;;9.40;99.90;;;;;;2106516;28;20078;-72
2021/10/18 04:40:46;;;;;;;12.35;9.15;;;9.40;99.90;;;;;;2106692;28;20099;-72
2021/10/18 04:41:47;;;;;;;12.15;9.43;;;9.40;99.90;;;;;;2105890;28;20055;-71
2021/10/18 04:42:47;;;;;;;11.75;9.15;;;9.40;99.90;;;;;;2106348;28;20027;-71
2021/10/18 04:43:50;;;;;;;12.77;9.60;;;9.40;99.90;;;;;;2105805;28;20687;-71
2021/10/18 04:44:51;;;;;;;12.10;9.30;;;9.40;99.90;;;;;;2106189;28;20107;-72
2021/10/18 04:45:52;;;;;;;13.38;9.43;;;9.40;99.90;;;;;;2106749;28;20071;-72
2021/10/18 04:46:52;;;;;;;15.50;10.57;;;9.40;99.90;;;;;;2106494;28;20024;-71
2021/10/18 04:47:53;;;;;;;13.52;9.60;;;9.30;99.90;;;;;;2106467;28;20054;-71
2021/10/18 04:48:53;;;;;;;15.45;10.02;;;9.40;99.90;;;;;;2106256;28;20475;-71
2021/10/18 04:49:54;;;;;;;13.10;9.90;;;9.30;99.90;;;;;;2106332;28;20046;-71
2021/10/18 04:50:55;;;;;;;11.88;9.25;;;9.30;99.90;;;;;;2106250;28;20031;-71
2021/10/18 04:51:55;;;;;;;12.75;9.77;;;9.30;99.90;;;;;;2106145;28;20593;-70
2021/10/18 04:52:56;;;;;;;12.85;9.30;;;9.30;99.90;;;;;;2105658;28;20567;-71
2021/10/18 04:53:56;;;;;;;12.75;9.68;;;9.30;99.90;;;;;;2106234;28;20024;-70
2021/10/18 04:54:57;;;;;;;13.25;9.48;;;9.30;99.90;;;;;;2106149;28;20028;-71
2021/10/18 04:55:58;;;;;;;13.45;10.55;;;9.30;99.90;;;;;;2106137;28;20016;-71
2021/10/18 04:56:58;;;;;;;13.48;9.77;;;9.30;99.90;;;;;;2106157;28;20589;-70
2021/10/18 04:58:02;;;;;;;12.60;9.60;;;9.30;99.90;;;;;;2105867;28;20502;-70
2021/10/18 04:59:02;;;;;;;13.98;10.23;;;9.30;99.90;;;;;;2106057;28;20078;-71
2021/10/18 05:00:03;;;;;;;11.88;9.57;;;9.30;99.90;;;;;;2106063;28;20073;-71
2021/10/18 05:01:04;;;;;;;13.32;9.60;;;9.30;99.90;;;;;;2105967;28;20036;-71
2021/10/18 05:02:05;;;;;;;11.27;9.07;;;9.30;99.90;;;;;;2105898;28;20028;-71
2021/10/18 05:03:05;;;;;;;10.98;8.90;;;9.30;99.90;;;;;;2105553;28;20024;-70
2021/10/18 05:04:06;;;;;;;11.90;9.27;;;9.30;99.90;;;;;;2105926;28;20462;-70
2021/10/18 05:05:07;;;;;;;13.30;9.65;;;9.30;99.90;;;;;;2105919;28;20098;-70
2021/10/18 05:06:07;;;;;;;12.77;9.00;;;9.30;99.90;;;;;;2105856;28;20127;-71
2021/10/18 05:07:08;;;;;;;14.23;9.65;;;9.30;99.90;;;;;;2106048;28;20431;-70
2021/10/18 05:08:11;;;;;;;11.77;9.35;;;9.30;99.90;;;;;;2106067;28;20456;-71
2021/10/18 05:09:12;;;;;;;12.55;8.98;;;9.30;99.90;;;;;;2105979;28;20024;-71
2021/10/18 05:10:14;;;;;;;13.52;9.50;;;9.30;99.90;;;;;;2106100;28;20398;-71
2021/10/18 05:11:14;;;;;;;12.50;8.90;;;9.30;99.90;;;;;;2105777;28;20482;-71
2021/10/18 05:12:15;;;;;;;12.15;9.00;;;9.30;99.90;;;;;;2106273;28;20062;-71
2021/10/18 05:13:15;;;;;;;12.73;8.98;;;9.20;99.90;;;;;;2105498;28;20387;-71